createdAt,value
2023-05-06T00:00:00.823Z,12.75
2023-05-06T00:05:00.780Z,12.82
2023-05-06T00:10:00.860Z,12.97
2023-05-06T00:15:00.631Z,12.93
2023-05-06T00:20:00.663Z,12.74
2023-05-06T00:25:00.562Z,12.67
2023-05-06T00:30:00.447Z,12.64
2023-05-06T00:35:00.410Z,12.64
2023-05-06T00:40:00.374Z,12.64
2023-05-06T00:45:00.321Z,12.60
2023-05-06T00:50:00.341Z,12.50
2023-05-06T00:55:00.173Z,12.45
2023-05-06T01:00:00.250Z,12.53
2023-05-06T01:05:00.160Z,12.54
2023-05-06T01:10:00.050Z,12.64
2023-05-06T01:14:59.968Z,12.45
2023-05-06T01:19:59.967Z,12.37
2023-05-06T01:24:59.867Z,12.45
2023-05-06T01:29:59.829Z,12.49
2023-05-06T01:34:59.795Z,12.45
2023-05-06T01:39:59.844Z,12.53
2023-05-06T01:44:59.782Z,12.52
2023-05-06T01:49:59.721Z,12.50
2023-05-06T01:54:59.650Z,12.49
2023-05-06T01:59:59.502Z,12.46
2023-05-06T02:04:59.427Z,12.60
2023-05-06T02:09:59.420Z,12.60
2023-05-06T02:14:59.353Z,12.54
2023-05-06T02:20:00.477Z,12.50
2023-05-06T02:24:59.386Z,12.38
2023-05-06T02:29:59.315Z,12.47
2023-05-06T02:34:59.272Z,12.50
2023-05-06T02:39:59.207Z,12.41
2023-05-06T02:44:59.163Z,12.29
2023-05-06T02:49:59.205Z,12.23
2023-05-06T02:54:58.925Z,12.37
2023-05-06T02:59:58.864Z,12.35
2023-05-06T03:04:58.857Z,12.35
2023-05-06T03:09:58.727Z,12.19
2023-05-06T03:14:58.696Z,12.07
2023-05-06T03:19:58.643Z,11.98
2023-05-06T03:24:58.788Z,11.80
2023-05-06T03:29:58.540Z,11.72
2023-05-06T03:34:58.645Z,11.55
2023-05-06T03:39:58.592Z,11.47
2023-05-06T03:44:58.428Z,11.35
2023-05-06T03:49:58.485Z,11.35
2023-05-06T03:54:58.269Z,11.29
2023-05-06T03:59:58.249Z,11.22
2023-05-06T04:04:58.184Z,11.29
2023-05-06T04:09:58.136Z,11.19
2023-05-06T04:14:58.186Z,11.19
2023-05-06T04:19:58.015Z,11.07
2023-05-06T04:24:58.133Z,11.03
2023-05-06T04:29:57.941Z,11.10
2023-05-06T04:34:57.919Z,11.17
2023-05-06T04:39:57.896Z,11.25
2023-05-06T04:44:58.851Z,11.32
2023-05-06T04:49:57.678Z,11.52
2023-05-06T04:54:57.702Z,11.73
2023-05-06T04:59:57.594Z,11.90
2023-05-06T05:04:57.532Z,12.14
2023-05-06T05:09:57.510Z,12.37
2023-05-06T05:14:57.606Z,12.53
2023-05-06T05:19:57.503Z,12.62
2023-05-06T05:24:57.297Z,12.89
2023-05-06T05:29:57.468Z,13.00
2023-05-06T05:34:57.325Z,13.19
2023-05-06T05:39:57.232Z,13.46
2023-05-06T05:44:57.136Z,13.62
2023-05-06T05:49:58.160Z,13.75
2023-05-06T05:54:57.028Z,13.88
2023-05-06T05:59:56.934Z,14.10
2023-05-06T06:04:56.872Z,14.36
2023-05-06T06:10:00.280Z,14.70
2023-05-06T06:14:56.915Z,15.10
2023-05-06T06:19:56.868Z,15.41
2023-05-06T06:24:56.767Z,15.71
2023-05-06T06:29:56.694Z,16.05
2023-05-06T06:34:56.510Z,16.46
2023-05-06T06:39:56.487Z,16.83
2023-05-06T06:44:56.409Z,17.23
2023-05-06T06:49:56.367Z,17.49
2023-05-06T06:54:56.347Z,17.48
2023-05-06T07:00:05.116Z,17.46
2023-05-06T07:04:56.176Z,17.78
2023-05-06T07:09:56.134Z,18.21
2023-05-06T07:14:56.125Z,18.29
2023-05-06T07:19:55.999Z,18.47
2023-05-06T07:24:56.010Z,18.78
2023-05-06T07:29:55.906Z,19.31
2023-05-06T07:34:55.853Z,19.43
2023-05-06T07:39:55.822Z,19.78
2023-05-06T07:44:55.762Z,19.98
2023-05-06T07:49:55.709Z,20.11
2023-05-06T07:54:55.747Z,20.03
2023-05-06T07:59:55.596Z,19.43
2023-05-06T08:04:55.745Z,19.81
2023-05-06T08:09:55.553Z,19.98
2023-05-06T08:14:55.416Z,19.69
2023-05-06T08:19:55.414Z,20.73
2023-05-06T08:24:55.313Z,21.28
2023-05-06T08:29:55.292Z,21.37
2023-05-06T08:34:55.231Z,20.82
2023-05-06T08:39:55.171Z,21.58
2023-05-06T08:44:55.288Z,21.29
2023-05-06T08:49:55.089Z,20.67
2023-05-06T08:54:55.145Z,20.16
2023-05-06T08:59:55.974Z,21.01
2023-05-06T09:04:55.008Z,21.44
2023-05-06T09:09:54.945Z,21.44
2023-05-06T09:14:54.820Z,22.21
2023-05-06T09:19:54.773Z,22.72
2023-05-06T09:24:54.705Z,22.02
2023-05-06T09:29:54.654Z,22.73
2023-05-06T09:34:54.595Z,23.02
2023-05-06T09:39:54.567Z,23.55
2023-05-06T09:44:54.507Z,22.94
2023-05-06T09:49:54.490Z,23.33
2023-05-06T09:54:54.434Z,23.98
2023-05-06T09:59:54.426Z,24.42
2023-05-06T10:04:54.427Z,24.42
2023-05-06T10:09:54.278Z,24.68
2023-05-06T10:14:54.235Z,24.47
2023-05-06T10:19:54.177Z,24.84
2023-05-06T10:24:54.116Z,24.85
2023-05-06T10:29:54.085Z,25.05
2023-05-06T10:34:54.111Z,24.67
2023-05-06T10:39:57.451Z,24.21
2023-05-06T10:44:53.959Z,24.30
2023-05-06T10:49:53.933Z,24.37
2023-05-06T10:54:53.816Z,23.85
2023-05-06T10:59:53.784Z,24.13
2023-05-06T11:04:53.749Z,24.43
2023-05-06T11:09:53.660Z,25.20
2023-05-06T11:14:53.609Z,24.77
2023-05-06T11:19:53.699Z,24.42
2023-05-06T11:24:53.592Z,24.39
2023-05-06T11:29:53.487Z,23.72
2023-05-06T11:34:53.420Z,22.17
2023-05-06T11:39:53.453Z,23.35
2023-05-06T11:44:53.303Z,24.10
2023-05-06T11:49:53.268Z,24.25
2023-05-06T11:54:53.208Z,24.25
2023-05-06T11:59:53.166Z,24.15
2023-05-06T12:04:53.262Z,24.93
2023-05-06T12:09:53.104Z,24.80
2023-05-06T12:14:53.107Z,24.98
2023-05-06T12:19:52.946Z,24.60
2023-05-06T12:24:52.918Z,25.15
2023-05-06T12:29:52.817Z,25.20
2023-05-06T12:34:52.849Z,25.18
2023-05-06T12:39:52.790Z,25.80
2023-05-06T12:44:52.740Z,25.70
2023-05-06T12:49:52.705Z,26.12
2023-05-06T12:54:52.933Z,26.26
2023-05-06T12:59:52.582Z,27.13
2023-05-06T13:04:52.507Z,26.92
2023-05-06T13:09:59.550Z,27.44
2023-05-06T13:14:52.391Z,27.21
2023-05-06T13:19:52.462Z,27.24
2023-05-06T13:24:52.297Z,27.37
2023-05-06T13:29:52.329Z,27.36
2023-05-06T13:34:52.214Z,27.70
2023-05-06T13:39:52.288Z,28.18
2023-05-06T13:44:52.104Z,28.29
2023-05-06T13:49:52.197Z,27.85
2023-05-06T13:54:52.153Z,28.18
2023-05-06T13:59:52.112Z,28.15
2023-05-06T14:04:52.031Z,27.59
2023-05-06T14:09:51.951Z,26.70
2023-05-06T14:14:51.867Z,26.99
2023-05-06T14:19:51.797Z,26.92
2023-05-06T14:24:51.734Z,27.17
2023-05-06T14:29:51.707Z,26.95
2023-05-06T14:34:51.770Z,26.75
2023-05-06T14:39:51.669Z,26.70
2023-05-06T14:44:51.631Z,25.91
2023-05-06T14:49:51.586Z,26.28
2023-05-06T14:54:51.551Z,26.02
2023-05-06T14:59:51.368Z,25.75
2023-05-06T15:04:51.326Z,25.33
2023-05-06T15:09:51.300Z,25.50
2023-05-06T15:14:51.252Z,25.23
2023-05-06T15:19:51.209Z,25.27
2023-05-06T15:24:51.262Z,24.88
2023-05-06T15:29:51.188Z,24.68
2023-05-06T15:34:51.092Z,24.53
2023-05-06T15:39:51.085Z,22.40
2023-05-06T15:44:50.996Z,21.52
2023-05-06T15:50:10.885Z,21.28
2023-05-06T15:54:51.803Z,21.03
2023-05-06T15:59:50.746Z,20.64
2023-05-06T16:04:50.899Z,20.42
2023-05-06T16:09:50.734Z,20.32
2023-05-06T16:14:50.654Z,20.43
2023-05-06T16:19:50.630Z,19.80
2023-05-06T16:24:50.545Z,19.61
2023-05-06T16:29:50.423Z,19.13
2023-05-06T16:34:50.487Z,19.41
2023-05-06T16:39:50.319Z,19.87
2023-05-06T16:44:50.247Z,19.76
2023-05-06T16:49:50.184Z,19.71
2023-05-06T16:54:51.227Z,19.63
2023-05-06T16:59:50.215Z,19.73
2023-05-06T17:04:50.167Z,19.78
2023-05-06T17:09:50.097Z,19.73
2023-05-06T17:14:50.003Z,19.76
2023-05-06T17:19:49.936Z,19.74
2023-05-06T17:24:49.828Z,19.66
2023-05-06T17:29:49.776Z,19.63
2023-05-06T17:34:49.756Z,19.71
2023-05-06T17:39:49.738Z,19.56
2023-05-06T17:44:49.665Z,19.46
2023-05-06T17:49:49.618Z,19.61
2023-05-06T17:54:57.486Z,19.62
2023-05-06T17:59:50.487Z,19.58
2023-05-06T18:04:49.476Z,19.62
2023-05-06T18:09:49.345Z,19.33
2023-05-06T18:14:49.385Z,19.21
2023-05-06T18:19:49.257Z,18.80
2023-05-06T18:24:49.204Z,18.81
2023-05-06T18:29:50.159Z,18.82
2023-05-06T18:34:49.180Z,19.00
2023-05-06T18:39:49.118Z,18.91
2023-05-06T18:44:49.039Z,18.51
2023-05-06T18:49:52.325Z,18.67
2023-05-06T18:54:48.853Z,18.67
2023-05-06T18:59:48.793Z,18.60
2023-05-06T19:04:48.760Z,18.36
2023-05-06T19:09:57.520Z,18.70
2023-05-06T19:14:48.636Z,18.41
2023-05-06T19:19:48.653Z,18.30
2023-05-06T19:24:48.504Z,18.32
2023-05-06T19:29:48.488Z,18.37
2023-05-06T19:34:48.462Z,18.26
2023-05-06T19:39:48.382Z,18.25
2023-05-06T19:44:48.420Z,18.29
2023-05-06T19:49:48.380Z,18.36
2023-05-06T19:54:48.309Z,18.07
2023-05-06T19:59:48.121Z,18.11
2023-05-06T20:04:48.096Z,18.18
2023-05-06T20:09:48.020Z,18.12
2023-05-06T20:14:48.009Z,18.14
2023-05-06T20:19:48.015Z,18.15
2023-05-06T20:24:47.934Z,17.95
2023-05-06T20:29:47.928Z,17.92
2023-05-06T20:34:47.884Z,18.03
2023-05-06T20:39:47.788Z,18.17
2023-05-06T20:44:47.755Z,18.08
2023-05-06T20:49:47.721Z,18.08
2023-05-06T20:54:47.638Z,18.10
2023-05-06T20:59:47.469Z,18.03
2023-05-06T21:04:47.451Z,18.02
2023-05-06T21:09:47.383Z,17.93
2023-05-06T21:14:47.293Z,17.90
2023-05-06T21:19:47.252Z,17.82
2023-05-06T21:24:47.189Z,17.84
2023-05-06T21:29:47.163Z,17.82
2023-05-06T21:34:47.117Z,17.81
2023-05-06T21:39:47.203Z,17.77
2023-05-06T21:44:47.063Z,17.74
2023-05-06T21:49:46.924Z,17.68
2023-05-06T21:54:47.071Z,17.72
2023-05-06T21:59:46.873Z,17.71
2023-05-06T22:04:48.820Z,17.68
2023-05-06T22:09:46.699Z,17.62
2023-05-06T22:14:46.741Z,17.56
2023-05-06T22:19:46.660Z,17.56
2023-05-06T22:24:46.560Z,17.49
2023-05-06T22:29:46.672Z,17.40
2023-05-06T22:34:46.594Z,17.33
2023-05-06T22:39:46.426Z,17.23
2023-05-06T22:44:46.328Z,17.23
2023-05-06T22:49:46.284Z,17.23
2023-05-06T22:54:46.248Z,17.18
2023-05-06T22:59:46.185Z,17.18
2023-05-06T23:04:46.237Z,17.19
2023-05-06T23:09:46.182Z,17.18
2023-05-06T23:14:46.009Z,17.15
2023-05-06T23:19:46.112Z,17.18
2023-05-06T23:24:45.934Z,17.19
2023-05-06T23:29:45.848Z,17.18
2023-05-06T23:34:45.822Z,17.15
2023-05-06T23:39:45.785Z,17.16
2023-05-06T23:44:45.785Z,17.16
2023-05-06T23:49:45.684Z,17.18
2023-05-06T23:54:45.598Z,17.12
2023-05-06T23:59:45.578Z,17.07
